Time;durP1;ratioP1;P1;durP2;ratioP2;P2;SDS_P1;SDS_P2;PMS_P1;PMS_P2;Temp;Humidity;BMP_temperature;BMP_pressure;BME280_temperature;BME280_humidity;BME280_pressure;Samples;Min_cycle;Max_cycle;Signal;HPM_P1;HPM_P2
2021/01/07 00:01:30;;;;;;;5.10;0.65;;;;;;;1.52;54.09;101181.06;5007630;28;20092;-70
2021/01/07 00:03:55;;;;;;;2.22;0.43;;;;;;;1.54;53.97;101182.81;5007661;28;20061;-69
2021/01/07 00:06:21;;;;;;;4.40;2.47;;;;;;;1.54;54.04;101182.81;5008770;28;20577;-70
2021/01/07 00:08:46;;;;;;;2.72;0.80;;;;;;;1.45;54.12;101178.50;5008513;28;20091;-69
2021/01/07 00:11:12;;;;;;;3.20;1.13;;;;;;;1.44;54.04;101175.06;5008659;28;20083;-70
2021/01/07 00:13:38;;;;;;;1.63;0.50;;;;;;;1.46;54.30;101178.50;5026579;28;20450;-69
2021/01/07 00:16:05;;;;;;;5.82;0.80;;;;;;;1.41;54.22;101181.91;5024879;28;20422;-69
2021/01/07 00:18:31;;;;;;;1.88;0.70;;;;;;;1.37;54.20;101172.41;5026976;28;20037;-69
2021/01/07 00:20:56;;;;;;;1.65;0.45;;;;;;;1.39;54.04;101176.72;4993191;28;20030;-69
2021/01/07 00:23:22;;;;;;;3.03;0.60;;;;;;;1.31;54.13;101179.28;5027450;28;20045;-69
2021/01/07 00:25:52;;;;;;;1.42;0.47;;;;;;;1.31;54.17;101171.56;5007501;28;20072;-69
2021/01/07 00:28:19;;;;;;;2.50;1.02;;;;;;;1.31;54.25;101171.56;5012832;28;20695;-69
2021/01/07 00:30:46;;;;;;;2.15;0.93;;;;;;;1.30;54.22;101172.41;5008395;28;20025;-70
2021/01/07 00:33:13;;;;;;;4.95;1.13;;;;;;;1.32;54.22;101164.69;4991434;28;20080;-69
2021/01/07 00:35:39;;;;;;;2.03;0.40;;;;;;;1.32;54.23;101164.69;5026908;28;20037;-69
2021/01/07 00:38:06;;;;;;;1.55;0.40;;;;;;;1.32;54.23;101157.81;5013175;28;20144;-69
2021/01/07 00:40:32;;;;;;;1.42;1.00;;;;;;;1.31;53.92;101150.09;5026630;28;20022;-69
2021/01/07 00:42:57;;;;;;;3.30;0.65;;;;;;;1.38;54.03;101156.97;5024527;28;20036;-69
2021/01/07 00:45:23;;;;;;;2.10;0.82;;;;;;;1.40;53.86;101152.72;4993558;28;20053;-69
2021/01/07 00:47:49;;;;;;;3.45;0.88;;;;;;;1.29;54.20;101142.34;5026920;28;20568;-69
2021/01/07 00:50:14;;;;;;;3.38;0.47;;;;;;;1.36;54.04;101145.81;5007890;28;20744;-70
2021/01/07 00:52:40;;;;;;;3.90;0.35;;;;;;;1.41;54.05;101145.84;5006176;28;20041;-69
2021/01/07 00:55:08;;;;;;;4.63;0.82;;;;;;;1.43;53.83;101147.56;4997848;28;20043;-69
2021/01/07 00:57:35;;;;;;;5.13;2.85;;;;;;;1.42;54.19;101140.72;5008977;28;20043;-69
2021/01/07 01:00:00;;;;;;;6.85;2.88;;;;;;;1.39;54.26;101144.94;5026852;28;20030;-70
2021/01/07 01:02:26;;;;;;;0.98;0.50;;;;;;;1.30;54.01;101145.78;5008388;28;20097;-69
2021/01/07 01:04:52;;;;;;;7.20;1.35;;;;;;;1.32;54.23;101144.06;4993748;28;20041;-70
2021/01/07 01:07:17;;;;;;;6.18;2.95;;;;;;;1.28;53.80;101142.34;5008297;28;20465;-69
2021/01/07 01:09:43;;;;;;;8.55;2.30;;;;;;;1.38;54.05;101140.66;5008612;28;20037;-69
2021/01/07 01:12:09;;;;;;;3.95;1.50;;;;;;;1.22;54.07;101135.47;5008808;28;20026;-70
2021/01/07 01:14:34;;;;;;;2.45;1.17;;;;;;;1.16;54.03;101139.75;4992776;28;20236;-69
2021/01/07 01:17:00;;;;;;;5.30;0.90;;;;;;;1.09;54.36;101134.56;5025194;28;20554;-69
2021/01/07 01:19:25;;;;;;;1.10;0.55;;;;;;;1.03;54.52;101138.84;5008306;28;20044;-69
2021/01/07 01:21:52;;;;;;;3.22;1.58;;;;;;;1.16;54.39;101138.03;5007652;28;20036;-70
2021/01/07 01:24:18;;;;;;;2.00;0.65;;;;;;;1.22;54.10;101132.91;4999932;28;20402;-69
2021/01/07 01:26:44;;;;;;;5.40;0.60;;;;;;;1.22;54.02;101139.78;4991201;28;20037;-69
2021/01/07 01:29:09;;;;;;;6.07;2.28;;;;;;;1.22;54.14;101135.47;5008852;28;20476;-71
2021/01/07 01:31:41;;;;;;;5.28;1.15;;;;;;;1.21;53.96;101133.72;5014220;28;20041;-69
2021/01/07 01:34:07;;;;;;;2.15;0.28;;;;;;;1.14;53.90;101133.72;5009670;28;20068;-69
2021/01/07 01:36:33;;;;;;;2.00;0.45;;;;;;;1.14;54.22;101128.56;5027664;28;20643;-70
2021/01/07 01:38:58;;;;;;;3.00;0.35;;;;;;;1.15;54.16;101135.44;5008679;28;20044;-69
2021/01/07 01:41:24;;;;;;;0.60;0.20;;;;;;;1.06;54.71;101137.13;5026944;28;20033;-69
2021/01/07 01:43:50;;;;;;;0.60;0.20;;;;;;;0.88;54.85;101131.91;5027386;28;20021;-69
2021/01/07 01:46:15;;;;;;;0.88;0.30;;;;;;;1.08;54.63;101132.84;5009419;28;20037;-70
2021/01/07 01:48:41;;;;;;;2.78;0.55;;;;;;;1.05;54.75;101125.09;4992824;28;20119;-70
2021/01/07 01:51:08;;;;;;;0.50;0.20;;;;;;;0.76;55.22;101129.28;5024923;28;20072;-70
2021/01/07 01:53:35;;;;;;;0.95;0.30;;;;;;;0.92;54.88;101122.50;5012123;28;20499;-70
2021/01/07 01:56:02;;;;;;;0.40;0.10;;;;;;;1.05;54.92;101125.09;5011949;28;20030;-70
2021/01/07 01:58:29;;;;;;;0.73;0.15;;;;;;;1.08;54.74;101125.13;5017326;28;20030;-70
2021/01/07 02:00:54;;;;;;;0.43;0.10;;;;;;;1.12;54.80;101120.84;5012529;28;20044;-70
2021/01/07 02:03:20;;;;;;;1.45;0.20;;;;;;;1.08;54.82;101126.81;5012906;28;20418;-70
2021/01/07 02:05:46;;;;;;;0.77;0.20;;;;;;;1.26;54.48;101128.59;5011340;28;20079;-69
2021/01/07 02:08:13;;;;;;;0.65;0.20;;;;;;;1.19;54.53;101121.72;5010395;28;20044;-69
2021/01/07 02:10:39;;;;;;;0.98;0.88;;;;;;;1.12;54.60;101120.84;5028672;28;20033;-69
2021/01/07 02:13:07;;;;;;;2.20;0.30;;;;;;;1.17;54.31;101115.69;5011425;28;20463;-69
2021/01/07 02:15:42;;;;;;;0.70;0.10;;;;;;;1.19;54.59;101116.56;5028350;28;20048;-69
2021/01/07 02:18:08;;;;;;;0.68;0.20;;;;;;;1.10;54.82;101122.53;5022394;28;20021;-71
2021/01/07 02:20:35;;;;;;;3.45;0.20;;;;;;;1.15;54.44;101120.88;5015055;28;20084;-69
2021/01/07 02:23:00;;;;;;;0.90;0.30;;;;;;;1.12;54.88;101118.25;5029534;28;20116;-71
2021/01/07 02:25:26;;;;;;;1.52;0.40;;;;;;;1.22;54.55;101111.44;4996720;28;20120;-69
2021/01/07 02:27:51;;;;;;;2.28;0.30;;;;;;;1.24;54.33;101117.47;5014421;28;20249;-69
2021/01/07 02:30:17;;;;;;;0.93;0.20;;;;;;;1.29;54.33;101118.31;5011938;28;20410;-69
2021/01/07 02:32:45;;;;;;;0.80;0.20;;;;;;;1.18;54.55;101117.44;5029293;28;20033;-69
2021/01/07 02:35:11;;;;;;;3.92;0.30;;;;;;;1.17;54.59;101110.56;5032241;28;20434;-69
2021/01/07 02:37:38;;;;;;;0.55;0.30;;;;;;;1.28;54.41;101116.59;5015025;28;20026;-69
2021/01/07 02:40:05;;;;;;;0.75;0.20;;;;;;;1.32;54.15;101108.88;5009312;28;20017;-69
2021/01/07 02:42:31;;;;;;;0.30;0.15;;;;;;;1.17;54.60;101113.13;5012382;28;20033;-69
2021/01/07 02:44:57;;;;;;;0.88;0.20;;;;;;;1.23;54.24;101113.16;5004304;28;20177;-69
2021/01/07 02:47:22;;;;;;;0.60;0.20;;;;;;;1.23;54.29;101108.00;5032591;28;20399;-70
2021/01/07 02:49:48;;;;;;;0.70;0.17;;;;;;;1.22;54.43;101103.72;5030057;28;20071;-70
2021/01/07 02:52:14;;;;;;;5.25;0.30;;;;;;;1.21;54.23;101102.84;4990577;28;20122;-70
2021/01/07 02:54:39;;;;;;;0.60;0.13;;;;;;;1.11;54.59;101094.25;5000539;28;20491;-69
2021/01/07 02:57:05;;;;;;;0.68;0.30;;;;;;;1.03;54.66;101093.34;5009181;28;20093;-70
2021/01/07 02:59:30;;;;;;;2.60;0.25;;;;;;;0.91;54.92;101101.03;5013695;28;20556;-69
2021/01/07 03:01:56;;;;;;;1.48;0.13;;;;;;;1.09;54.74;101088.22;4993663;28;20602;-69
2021/01/07 03:04:24;;;;;;;0.60;0.30;;;;;;;1.03;54.89;101090.78;5028707;28;20056;-69
2021/01/07 03:06:50;;;;;;;1.05;0.35;;;;;;;1.07;54.54;101092.50;5028696;28;20017;-69
2021/01/07 03:09:15;;;;;;;1.00;0.20;;;;;;;1.13;54.78;101090.78;5014785;28;20093;-70
2021/01/07 03:11:41;;;;;;;3.42;0.32;;;;;;;1.16;54.42;101085.69;5029603;28;20048;-69
2021/01/07 03:14:06;;;;;;;2.47;0.30;;;;;;;1.06;54.47;101084.78;5015602;28;20301;-71
2021/01/07 03:16:32;;;;;;;1.08;0.20;;;;;;;0.84;55.26;101078.72;5029557;28;20030;-70
2021/01/07 03:18:57;;;;;;;1.15;0.20;;;;;;;0.80;55.38;101076.97;5013146;28;20116;-70
2021/01/07 03:21:23;;;;;;;1.85;0.28;;;;;;;0.66;55.80;101076.94;5011438;28;20048;-70
2021/01/07 03:23:49;;;;;;;1.98;0.50;;;;;;;0.85;55.53;101080.44;5012131;28;20037;-70
2021/01/07 03:26:15;;;;;;;1.50;0.20;;;;;;;0.84;55.49;101089.88;5028960;28;20026;-71
2021/01/07 03:28:41;;;;;;;2.42;0.15;;;;;;;1.00;55.04;101075.34;5030955;28;20568;-71
2021/01/07 03:31:07;;;;;;;0.20;0.10;;;;;;;1.11;54.83;101073.66;5008018;28;20118;-69
2021/01/07 03:33:32;;;;;;;3.58;0.22;;;;;;;1.08;55.13;101068.50;4994553;28;20080;-69
2021/01/07 03:36:00;;;;;;;1.35;0.30;;;;;;;0.92;55.61;101073.59;5012121;28;20037;-70
2021/01/07 03:38:26;;;;;;;2.20;0.28;;;;;;;1.04;55.43;101071.91;5028980;28;20044;-72
2021/01/07 03:40:51;;;;;;;1.05;0.30;;;;;;;1.03;55.06;101067.59;5014858;28;20487;-70
2021/01/07 03:43:17;;;;;;;0.70;0.17;;;;;;;0.86;55.82;101065.00;5027874;28;20041;-70
2021/01/07 03:45:43;;;;;;;0.68;0.22;;;;;;;1.03;55.05;101065.03;5011066;28;20048;-70
2021/01/07 03:48:08;;;;;;;0.50;0.20;;;;;;;1.13;55.06;101073.66;5006723;28;20026;-70
2021/01/07 03:50:34;;;;;;;0.98;0.30;;;;;;;1.16;54.99;101070.22;5009567;28;20033;-70
2021/01/07 03:52:59;;;;;;;0.75;0.15;;;;;;;1.20;54.90;101062.50;5027190;28;20497;-70
2021/01/07 03:55:25;;;;;;;0.52;0.10;;;;;;;1.20;55.12;101059.94;4994968;28;20041;-70
2021/01/07 03:57:51;;;;;;;0.50;0.13;;;;;;;1.15;55.22;101060.78;5009179;28;20044;-70
2021/01/07 04:00:16;;;;;;;1.48;0.30;;;;;;;1.28;54.78;101060.81;5009937;28;20344;-70
2021/01/07 04:02:42;;;;;;;3.25;0.25;;;;;;;1.17;54.89;101059.06;5010546;28;20492;-69
2021/01/07 04:05:08;;;;;;;0.40;0.20;;;;;;;1.16;54.81;101054.78;5014286;28;20036;-70
2021/01/07 04:07:36;;;;;;;0.50;0.15;;;;;;;1.14;54.79;101051.34;4990995;28;20576;-69
2021/01/07 04:10:01;;;;;;;2.90;0.25;;;;;;;1.18;54.78;101048.78;4992025;28;20035;-69
2021/01/07 04:12:27;;;;;;;1.13;0.40;;;;;;;0.92;54.97;101047.84;5013214;28;20056;-69
2021/01/07 04:14:52;;;;;;;1.30;0.20;;;;;;;0.93;55.29;101047.88;5027329;28;20029;-69
2021/01/07 04:17:18;;;;;;;0.77;0.20;;;;;;;1.10;55.03;101047.88;5028720;28;20100;-69
2021/01/07 04:19:43;;;;;;;0.63;0.20;;;;;;;1.11;54.92;101037.59;5014673;28;20048;-69
2021/01/07 04:22:09;;;;;;;1.10;0.30;;;;;;;1.15;54.53;101042.75;5028142;28;20040;-70
2021/01/07 04:24:35;;;;;;;1.10;0.38;;;;;;;1.09;54.81;101039.31;5031425;28;20107;-69
2021/01/07 04:27:04;;;;;;;2.50;0.30;;;;;;;1.06;55.01;101052.19;5009840;28;20033;-69
2021/01/07 04:29:30;;;;;;;1.67;0.32;;;;;;;1.15;54.42;101056.50;4998958;28;20033;-70
2021/01/07 04:31:56;;;;;;;0.68;0.20;;;;;;;0.97;54.75;101049.59;5010621;28;20091;-70
2021/01/07 04:34:21;;;;;;;3.42;0.20;;;;;;;1.21;54.70;101051.34;5009898;28;20491;-69
2021/01/07 04:36:48;;;;;;;1.40;0.30;;;;;;;0.82;55.31;101050.41;5008240;28;20030;-70
2021/01/07 04:39:14;;;;;;;2.85;0.20;;;;;;;1.08;55.11;101050.47;5009257;28;20325;-70
2021/01/07 04:41:39;;;;;;;3.42;0.50;;;;;;;1.15;54.90;101041.06;5027265;28;20116;-69
2021/01/07 04:44:06;;;;;;;0.98;0.20;;;;;;;0.91;55.22;101044.44;5008554;28;20104;-70
2021/01/07 04:46:31;;;;;;;1.95;0.13;;;;;;;1.03;55.22;101041.00;5026338;28;20037;-69
2021/01/07 04:48:58;;;;;;;2.65;0.30;;;;;;;1.14;54.95;101038.47;5003114;28;20033;-71
2021/01/07 04:51:24;;;;;;;0.50;0.10;;;;;;;1.18;54.94;101041.03;5009810;28;20502;-70
2021/01/07 04:53:50;;;;;;;1.20;0.20;;;;;;;1.08;55.20;101037.59;5007172;28;20029;-70
2021/01/07 04:56:15;;;;;;;0.93;0.20;;;;;;;1.11;55.05;101041.91;5022552;28;20041;-70
2021/01/07 04:58:41;;;;;;;1.15;0.20;;;;;;;1.17;55.11;101041.03;5027261;28;20038;-69
2021/01/07 05:01:06;;;;;;;3.65;0.30;;;;;;;1.16;54.88;101044.47;5005498;28;20084;-70
2021/01/07 05:03:33;;;;;;;0.68;0.17;;;;;;;1.18;54.73;101040.19;4998110;28;20022;-69
2021/01/07 05:05:59;;;;;;;1.88;0.20;;;;;;;1.33;54.93;101042.78;5013233;28;20398;-69
2021/01/07 05:08:26;;;;;;;1.17;0.30;;;;;;;1.34;54.75;101043.66;5010458;28;20030;-70
2021/01/07 05:10:52;;;;;;;2.65;0.30;;;;;;;1.39;54.79;101042.78;5027581;28;20030;-69
2021/01/07 05:13:21;;;;;;;0.60;0.10;;;;;;;1.36;54.66;101035.06;5024381;28;20038;-70
2021/01/07 05:15:47;;;;;;;1.52;0.25;;;;;;;1.42;54.38;101037.69;4996749;28;20557;-69
2021/01/07 05:18:12;;;;;;;3.92;0.45;;;;;;;1.14;54.90;101031.59;5029918;28;20041;-70
2021/01/07 05:20:39;;;;;;;1.10;0.20;;;;;;;1.17;55.01;101035.88;5008456;28;20064;-69
2021/01/07 05:23:07;;;;;;;1.00;0.20;;;;;;;1.35;54.82;101035.94;5008878;28;20053;-70
2021/01/07 05:25:33;;;;;;;1.23;0.20;;;;;;;1.39;54.63;101027.31;5005441;28;20045;-70
2021/01/07 05:28:02;;;;;;;2.28;0.20;;;;;;;1.43;54.33;101038.53;5030155;28;20032;-69
2021/01/07 05:30:29;;;;;;;0.93;0.25;;;;;;;1.49;54.57;101023.94;5036689;28;20033;-70
2021/01/07 05:33:08;;;;;;;0.40;0.10;;;;;;;1.49;54.33;101034.25;5027487;28;20076;-70
2021/01/07 05:35:36;;;;;;;9.95;0.35;;;;;;;1.35;54.63;101035.03;5015657;28;20061;-70
2021/01/07 05:38:06;;;;;;;0.50;0.10;;;;;;;1.52;54.27;101034.22;5029227;28;20034;-70
2021/01/07 05:40:32;;;;;;;2.42;0.20;;;;;;;1.42;54.28;101035.09;5031310;28;20040;-70
2021/01/07 05:42:59;;;;;;;1.15;0.30;;;;;;;1.45;54.47;101031.66;5011323;28;20022;-70
2021/01/07 05:45:34;;;;;;;0.65;0.28;;;;;;;1.54;54.23;101036.81;5006425;28;20030;-70
2021/01/07 05:48:01;;;;;;;0.75;0.20;;;;;;;1.54;54.39;101025.66;5029155;28;20056;-70
2021/01/07 05:50:29;;;;;;;1.00;0.28;;;;;;;1.53;54.36;101022.22;5014796;28;20045;-70
2021/01/07 05:52:54;;;;;;;0.70;0.10;;;;;;;1.44;54.31;101030.81;4995333;28;20040;-70
2021/01/07 05:55:20;;;;;;;1.80;0.28;;;;;;;1.47;54.12;101024.81;5029591;28;20721;-70
2021/01/07 05:57:46;;;;;;;0.95;0.20;;;;;;;1.47;53.97;101024.81;4998775;28;20117;-70
2021/01/07 06:00:16;;;;;;;1.10;0.40;;;;;;;1.47;54.19;101025.66;5030730;28;20057;-70
2021/01/07 06:02:43;;;;;;;2.05;0.25;;;;;;;1.24;54.69;101027.34;5014497;28;20661;-70
2021/01/07 06:05:10;;;;;;;2.40;0.80;;;;;;;1.22;55.00;101023.91;5017706;28;20134;-70
2021/01/07 06:07:37;;;;;;;1.98;0.20;;;;;;;1.22;54.59;101014.44;5009917;28;20057;-70
2021/01/07 06:10:05;;;;;;;1.67;0.20;;;;;;;1.31;54.76;101026.47;5011703;28;20033;-70
2021/01/07 06:12:31;;;;;;;2.45;0.38;;;;;;;1.31;54.48;101017.03;5012161;28;20033;-70
2021/01/07 06:15:03;;;;;;;0.88;0.15;;;;;;;1.38;54.39;101019.63;5030557;28;20113;-70
2021/01/07 06:17:30;;;;;;;;;;;;;;;1.32;54.69;101026.47;5029408;28;20029;-70
2021/01/07 06:19:55;;;;;;;4.05;0.65;;;;;;;1.38;54.63;101020.47;5030238;28;20558;-70
2021/01/07 06:22:22;;;;;;;1.42;0.40;;;;;;;1.40;54.56;101026.50;5009486;28;20037;-70
2021/01/07 06:24:51;;;;;;;1.13;0.45;;;;;;;1.51;54.37;101026.53;5028945;28;20087;-70
2021/01/07 06:27:20;;;;;;;1.92;0.25;;;;;;;1.41;54.56;101029.94;5012891;28;20033;-70
2021/01/07 06:29:46;;;;;;;0.60;0.30;;;;;;;1.08;55.01;101026.44;5014791;28;20045;-70
2021/01/07 06:32:12;;;;;;;3.45;0.13;;;;;;;1.31;54.72;101023.91;5017188;28;20121;-70
2021/01/07 06:34:39;;;;;;;2.83;0.30;;;;;;;1.26;54.94;101020.44;5009628;28;20391;-70
2021/01/07 06:37:05;;;;;;;2.05;0.50;;;;;;;1.38;54.42;101023.03;4995618;28;20029;-70
2021/01/07 06:39:30;;;;;;;1.17;0.20;;;;;;;1.39;54.54;101019.59;5028416;28;20120;-70
2021/01/07 06:41:59;;;;;;;0.90;0.20;;;;;;;1.44;54.35;101017.94;4991466;28;20190;-70
2021/01/07 06:44:25;;;;;;;3.92;0.20;;;;;;;1.36;54.23;101017.03;5028453;28;20398;-70
2021/01/07 06:46:51;;;;;;;1.42;0.40;;;;;;;1.35;54.17;101015.31;5007227;28;20033;-71
2021/01/07 06:49:21;;;;;;;1.98;0.25;;;;;;;1.09;54.83;101018.72;5012270;28;20029;-70
2021/01/07 06:51:59;;;;;;;0.60;0.20;;;;;;;1.20;54.60;101023.03;5010563;28;20045;-70
2021/01/07 06:54:28;;;;;;;0.75;0.17;;;;;;;1.13;54.98;101011.00;4996143;28;20040;-69
2021/01/07 06:56:54;;;;;;;0.73;0.15;;;;;;;0.89;55.24;101015.25;5008860;28;20043;-69
2021/01/07 06:59:21;;;;;;;0.93;0.20;;;;;;;1.13;54.86;101018.72;5028772;28;20037;-70
2021/01/07 07:01:49;;;;;;;0.85;0.35;;;;;;;1.06;54.95;101020.41;4996670;28;20033;-70
2021/01/07 07:04:24;;;;;;;1.02;0.40;;;;;;;0.93;55.37;101022.13;4994647;28;20395;-70
2021/01/07 07:06:57;;;;;;;1.98;0.22;;;;;;;0.65;56.57;101016.03;5010593;28;20037;-69
2021/01/07 07:09:25;;;;;;;1.00;0.40;;;;;;;1.05;55.42;101026.44;5012208;28;20029;-72
2021/01/07 07:11:55;;;;;;;2.47;0.30;;;;;;;1.06;55.07;101028.13;4995124;28;20104;-71
2021/01/07 07:14:22;;;;;;;2.38;0.22;;;;;;;0.90;55.57;101022.09;5011221;28;20025;-69
2021/01/07 07:16:49;;;;;;;1.20;0.20;;;;;;;0.83;55.71;101028.94;5007555;28;20041;-70
2021/01/07 07:19:27;;;;;;;0.57;0.20;;;;;;;0.85;55.39;101029.81;5027359;28;20052;-70
2021/01/07 07:21:56;;;;;;;1.45;0.20;;;;;;;0.80;55.90;101028.94;5008677;28;20116;-70
2021/01/07 07:24:53;;;;;;;2.55;0.20;;;;;;;0.74;56.29;101025.50;5028152;28;20124;-71
2021/01/07 07:27:19;;;;;;;0.80;0.30;;;;;;;1.09;55.38;101028.16;5010494;28;20387;-69
2021/01/07 07:29:48;;;;;;;0.93;0.28;;;;;;;1.04;55.37;101025.59;4994827;28;20121;-70
2021/01/07 07:32:28;;;;;;;0.98;0.30;;;;;;;1.26;54.74;101030.75;5025111;28;20129;-71
2021/01/07 07:34:55;;;;;;;1.65;0.40;;;;;;;1.25;54.61;101026.47;5006517;28;20049;-70
2021/01/07 07:37:25;;;;;;;1.20;0.50;;;;;;;1.26;54.78;101036.78;5010852;28;20033;-70
2021/01/07 07:40:02;;;;;;;1.70;0.50;;;;;;;1.26;54.80;101031.63;5000902;28;20069;-71
2021/01/07 07:42:29;;;;;;;1.23;0.45;;;;;;;1.41;54.19;101035.94;5009294;28;20544;-71
2021/01/07 07:44:56;;;;;;;2.13;0.55;;;;;;;1.41;54.46;101035.09;4991145;28;20029;-71
2021/01/07 07:47:22;;;;;;;1.65;0.65;;;;;;;1.18;54.79;101038.47;5008618;28;20590;-71
2021/01/07 07:49:58;;;;;;;1.55;0.52;;;;;;;1.20;54.58;101041.06;5001528;28;20145;-69
2021/01/07 07:52:24;;;;;;;3.10;0.60;;;;;;;1.16;54.61;101036.75;5027434;28;20037;-70
2021/01/07 07:55:06;;;;;;;1.65;0.85;;;;;;;1.21;54.72;101041.03;5005272;28;20704;-70
2021/01/07 07:57:45;;;;;;;13.23;6.07;;;;;;;1.30;54.56;101042.78;5001963;28;20026;-70
2021/01/07 08:00:20;;;;;;;4.18;2.72;;;;;;;1.28;54.46;101045.38;5008558;28;20103;-70
2021/01/07 08:02:50;;;;;;;3.08;1.85;;;;;;;1.35;54.20;101047.94;5003463;28;20540;-70
2021/01/07 08:05:29;;;;;;;1.80;0.80;;;;;;;1.32;54.40;101049.63;5009026;28;20203;-70
2021/01/07 08:07:56;;;;;;;9.20;4.50;;;;;;;1.03;54.88;101047.00;5006761;28;20041;-70
2021/01/07 08:10:23;;;;;;;19.65;7.85;;;;;;;1.20;54.88;101048.78;5007716;28;20017;-70
2021/01/07 08:12:51;;;;;;;5.93;3.78;;;;;;;1.25;54.57;101047.91;5024648;28;20027;-70
2021/01/07 08:15:32;;;;;;;5.65;1.67;;;;;;;1.32;54.83;101056.50;5009248;28;20033;-70
2021/01/07 08:18:21;;;;;;;33.53;17.35;;;;;;;1.27;54.86;101059.09;5024479;28;20277;-71
2021/01/07 08:20:47;;;;;;;8.98;5.82;;;;;;;1.30;54.64;101047.94;4989595;28;20539;-71
2021/01/07 08:23:15;;;;;;;7.70;3.50;;;;;;;1.31;54.78;101057.38;4996037;28;20021;-70
2021/01/07 08:25:45;;;;;;;35.33;15.07;;;;;;;1.45;54.66;101060.00;5010316;28;20443;-70
2021/01/07 08:28:28;;;;;;;24.45;10.48;;;;;;;1.37;54.77;101054.78;5001464;28;20040;-71
2021/01/07 08:31:21;;;;;;;12.05;5.22;;;;;;;1.34;54.64;101065.09;4993713;28;20092;-70
2021/01/07 08:33:48;;;;;;;17.85;9.38;;;;;;;1.43;54.58;101059.13;5019861;28;20045;-70
2021/01/07 08:36:17;;;;;;;14.65;8.85;;;;;;;1.31;54.51;101054.81;5011316;28;20400;-70
2021/01/07 08:38:48;;;;;;;14.93;8.93;;;;;;;1.50;54.47;101059.13;4996045;28;20037;-71
2021/01/07 08:41:13;;;;;;;2.22;0.60;;;;;;;1.40;54.13;101060.00;4991715;28;20048;-71
2021/01/07 08:43:40;;;;;;;5.03;1.73;;;;;;;1.40;54.49;101054.84;5007210;28;20055;-71
2021/01/07 08:46:20;;;;;;;2.63;1.33;;;;;;;1.52;54.62;101059.13;5021561;28;20041;-71
2021/01/07 08:48:59;;;;;;;19.92;9.13;;;;;;;1.39;54.64;101068.53;5009965;28;20037;-71
2021/01/07 08:51:25;;;;;;;45.15;20.65;;;;;;;1.55;54.57;101059.16;4993119;28;20041;-71
2021/01/07 08:53:53;;;;;;;21.73;8.63;;;;;;;1.53;54.51;101066.03;5024195;28;20033;-70
2021/01/07 08:56:32;;;;;;;2.92;1.40;;;;;;;1.58;54.41;101064.31;5009770;28;20032;-71
2021/01/07 08:59:27;;;;;;;17.00;6.95;;;;;;;1.51;54.31;101063.44;5004685;28;20510;-71
2021/01/07 09:01:54;;;;;;;1.83;0.47;;;;;;;1.36;54.39;101063.38;4992447;28;20033;-70
2021/01/07 09:04:22;;;;;;;7.80;2.15;;;;;;;1.69;54.29;101067.75;5006173;28;20576;-71
2021/01/07 09:07:08;;;;;;;1.55;0.60;;;;;;;1.71;53.56;101062.59;4990128;28;20033;-71
2021/01/07 09:09:54;;;;;;;4.82;1.65;;;;;;;1.81;53.73;101060.88;5004322;28;20029;-71
2021/01/07 09:12:24;;;;;;;4.18;2.30;;;;;;;1.78;53.32;101066.88;5030767;28;20033;-72
2021/01/07 09:14:55;;;;;;;12.60;3.38;;;;;;;1.66;53.80;101061.72;5010685;28;20033;-71
2021/01/07 09:17:41;;;;;;;4.45;1.98;;;;;;;1.65;53.96;101065.16;5027471;28;20061;-71
2021/01/07 09:20:08;;;;;;;14.77;5.65;;;;;;;1.84;53.78;101056.59;5015056;28;20060;-71
2021/01/07 09:22:34;;;;;;;8.15;2.40;;;;;;;1.91;53.72;101063.44;5031048;28;20076;-70
2021/01/07 09:25:00;;;;;;;2.17;0.60;;;;;;;1.86;53.77;101065.16;5009970;28;20057;-73
2021/01/07 09:27:26;;;;;;;8.00;2.60;;;;;;;1.81;53.50;101066.88;5026979;28;20044;-72
2021/01/07 09:29:51;;;;;;;24.60;11.20;;;;;;;1.85;53.76;101062.59;4999818;28;21631;-70
2021/01/07 09:32:17;;;;;;;10.65;4.68;;;;;;;2.06;53.72;101061.69;5010195;28;20030;-70
2021/01/07 09:34:44;;;;;;;10.13;1.88;;;;;;;2.13;53.10;101068.53;5010045;28;20064;-71
2021/01/07 09:37:16;;;;;;;2.15;0.47;;;;;;;2.07;53.05;101066.00;5030729;28;20068;-70
2021/01/07 09:39:42;;;;;;;;;;;;;;;1.79;53.52;101065.16;5028366;28;20041;-71
2021/01/07 09:42:09;;;;;;;13.63;3.55;;;;;;;2.18;53.66;101066.00;5015360;28;19946;-71
2021/01/07 09:44:35;;;;;;;6.70;3.03;;;;;;;2.09;53.63;101061.69;5030928;28;20117;-71
2021/01/07 09:47:02;;;;;;;5.53;2.17;;;;;;;2.20;53.49;101062.53;4995618;28;20108;-71
2021/01/07 09:49:27;;;;;;;1.60;0.63;;;;;;;2.39;53.14;101059.91;5029445;28;20033;-70
2021/01/07 09:51:53;;;;;;;5.65;1.63;;;;;;;2.63;52.92;101064.97;5007753;28;20040;-71
2021/01/07 09:54:22;;;;;;;1.42;0.63;;;;;;;2.61;52.60;101058.97;5029459;28;20042;-72
2021/01/07 09:56:50;;;;;;;5.65;1.35;;;;;;;2.70;52.62;101061.50;5009686;28;20131;-70
2021/01/07 09:59:16;;;;;;;8.38;2.22;;;;;;;2.74;52.81;101062.38;5011445;28;20041;-71
2021/01/07 10:01:41;;;;;;;14.95;4.63;;;;;;;2.71;52.65;101058.06;5027841;28;20041;-70
2021/01/07 10:04:07;;;;;;;8.25;2.67;;;;;;;2.73;52.44;101065.78;5009505;28;20032;-70
2021/01/07 10:06:32;;;;;;;3.47;0.60;;;;;;;2.80;52.37;101061.47;5008897;28;20070;-70
2021/01/07 10:08:58;;;;;;;3.55;0.32;;;;;;;2.76;52.40;101058.91;5011954;28;20030;-70
2021/01/07 10:11:24;;;;;;;3.65;0.77;;;;;;;2.78;52.18;101058.91;5010229;28;20033;-70
2021/01/07 10:13:50;;;;;;;4.68;0.82;;;;;;;2.92;52.43;101061.41;5022226;28;20040;-70
2021/01/07 10:16:16;;;;;;;2.75;0.50;;;;;;;2.93;52.34;101053.63;5000214;28;20160;-70
2021/01/07 10:18:42;;;;;;;2.28;0.55;;;;;;;3.00;52.41;101059.63;5028002;28;20041;-70
2021/01/07 10:21:10;;;;;;;0.80;0.20;;;;;;;2.74;51.89;101055.47;4995224;28;20051;-70
2021/01/07 10:23:43;;;;;;;1.00;0.43;;;;;;;2.66;52.54;101057.22;5011701;28;20052;-71
2021/01/07 10:26:10;;;;;;;2.03;1.00;;;;;;;2.63;52.70;101046.06;5024721;28;20033;-71
2021/01/07 10:28:37;;;;;;;1.50;0.63;;;;;;;2.50;52.50;101053.00;5006969;28;20405;-71
2021/01/07 10:31:02;;;;;;;1.25;0.40;;;;;;;2.80;53.04;101048.56;5027759;28;20034;-70
2021/01/07 10:33:32;;;;;;;5.03;1.52;;;;;;;2.81;52.51;101050.28;5003725;28;20025;-70
2021/01/07 10:35:58;;;;;;;16.92;7.38;;;;;;;2.70;52.18;101043.44;4994847;28;20025;-70
2021/01/07 10:38:24;;;;;;;13.57;5.97;;;;;;;2.42;53.36;101045.28;4996995;28;20037;-70
2021/01/07 10:40:52;;;;;;;3.05;1.15;;;;;;;2.67;52.63;101040.03;5025965;28;20025;-71
2021/01/07 10:43:22;;;;;;;13.57;5.95;;;;;;;2.67;52.58;101043.47;5026186;28;20056;-71
2021/01/07 10:45:55;;;;;;;3.35;1.30;;;;;;;2.77;52.82;101041.69;4992681;28;20471;-71
2021/01/07 10:48:22;;;;;;;3.33;1.75;;;;;;;2.58;53.24;101035.75;5026466;28;20044;-71
2021/01/07 10:50:50;;;;;;;9.98;3.33;;;;;;;2.80;52.24;101033.94;5025946;28;20038;-70
2021/01/07 10:53:43;;;;;;;7.25;3.28;;;;;;;2.28;53.88;101036.72;5026233;28;20056;-70
2021/01/07 10:56:24;;;;;;;12.85;7.15;;;;;;;2.42;53.26;101028.94;5012593;28;20063;-71
2021/01/07 10:59:11;;;;;;;6.15;1.73;;;;;;;2.48;52.98;101027.19;5006854;28;20094;-71
2021/01/07 11:01:56;;;;;;;9.55;4.03;;;;;;;2.69;52.66;101020.19;5005464;28;20096;-71
2021/01/07 11:04:40;;;;;;;5.55;2.17;;;;;;;2.79;52.68;101019.31;4998093;28;20040;-71
2021/01/07 11:07:28;;;;;;;3.58;2.53;;;;;;;2.69;53.36;101013.34;5005189;28;20124;-71
2021/01/07 11:10:01;;;;;;;10.60;6.85;;;;;;;2.68;52.99;101014.19;5006257;28;20033;-70
2021/01/07 11:12:34;;;;;;;2.90;1.75;;;;;;;2.53;53.43;101022.88;5010587;28;20044;-71
2021/01/07 11:15:04;;;;;;;6.15;3.15;;;;;;;2.44;53.66;101011.72;5024366;28;20037;-71
2021/01/07 11:17:33;;;;;;;8.02;4.15;;;;;;;2.20;54.11;101013.53;5022341;28;20049;-70
2021/01/07 11:20:06;;;;;;;2.53;1.77;;;;;;;2.37;54.41;101010.88;5023543;28;20033;-70
2021/01/07 11:22:37;;;;;;;4.35;1.35;;;;;;;2.62;53.87;101003.88;4991724;28;20025;-70
2021/01/07 11:25:04;;;;;;;1.63;0.90;;;;;;;2.86;52.66;101000.31;5022936;28;20732;-70
2021/01/07 11:27:31;;;;;;;23.92;12.43;;;;;;;2.74;53.32;100996.09;5025147;28;20042;-70
2021/01/07 11:30:00;;;;;;;15.40;7.38;;;;;;;3.01;52.78;100999.38;5024655;28;20040;-71
2021/01/07 11:32:27;;;;;;;5.75;1.33;;;;;;;3.11;52.39;100990.72;5021698;28;20143;-71
2021/01/07 11:34:53;;;;;;;1.15;0.60;;;;;;;3.03;51.94;100997.66;4990384;28;20052;-71
2021/01/07 11:37:43;;;;;;;1.92;0.65;;;;;;;2.86;52.67;100999.47;5023042;28;20501;-71
2021/01/07 11:40:18;;;;;;;1.67;0.45;;;;;;;2.79;52.75;100988.34;5025502;28;20076;-70